Huvudsida
METAR-TAF:

METAR-TAF

Flygplatser :

Khartoum, Sudan

latitud: 15-36N, longitud: 032-33E, höjd: 382 m

Aktuellt väderrapport

Denna rapport gjordes för 30 minuter sedan, klockan 13:00 UTC
Vind 11 kt från nord/nordväst
Temperatur 40°C
Fuktighet 13%
Tryck 1008 hPa
Sikt 10 km eller mer
Inga moln under 1 500 m eller inga cumulonimbus

METAR: HSSS 151300Z 34011KT CAVOK 40/06 Q1008 NOSIG

Tid: 16:30 (13:30 UTC)

Väderprognos

Denna rapport gjordes för 2 timmar och 30 minuter sedan, klockan 11:00 UTC
Prognos gäller från 15 kl. 12 UTC till 16 kl. 18 UTC
Vind 10 kt från nord i byarna ända upp till 20 kt
Sikt 10 km eller mer
Inga moln under 1 500 m eller inga cumulonimbus
Sannolikhet 30% :
Temporärt
från 16 kl. 12 UTC till 16 kl. 18 UTC
Vind 8 kt från nord/nordväst i byarna ända upp till 18 kt
Sikt 10 km eller mer
Få moln på en höjd av 4000 ft

TAF: HSSS 151100Z 1512/1618 36010G20KT CAVOK PROB30 TEMPO 1612/1618 33008G18KT 9999 FEW040

Aktuella väderrapporter och prognoser från 4000 flygplatser (METAR- och TAF-rapporter).

De tillgängliga stationerna syns som gula och röda prickar på kartan.

För musen över prickarna för att se namnen på stationerna.

Klicka sedan för att få väderrapporter och prognoser.

För att ändra kartan: Klicka på de gröna knapparna med ett svart kors på för att zooma in; den gröna knappen med ett streck på för att zooma ut; eller på de gröna pilarna för angränsande kartor.


METAR-TAF: